sensor_id;sensor_type;location;lat;lon;timestamp;pressure;altitude;pressure_sealevel;temperature;humidity
53689;BME280;39583;54.682;30.662;2022-10-15T09:07:54;100257.22;;;11.00;100.00
53689;BME280;39583;54.682;30.662;2022-10-15T09:10:35;100261.00;;;11.45;100.00
53689;BME280;39583;54.682;30.662;2022-10-15T09:13:12;100260.66;;;11.81;100.00
53689;BME280;39583;54.682;30.662;2022-10-15T09:15:53;100256.66;;;12.17;100.00
53689;BME280;39583;54.682;30.662;2022-10-15T09:18:24;100254.91;;;12.49;100.00
53689;BME280;39583;54.682;30.662;2022-10-15T09:20:52;100251.09;;;12.70;100.00
53689;BME280;39583;54.682;30.662;2022-10-15T09:23:21;100255.66;;;12.76;100.00
53689;BME280;39583;54.682;30.662;2022-10-15T09:26:08;100261.69;;;12.72;100.00
53689;BME280;39583;54.682;30.662;2022-10-15T09:31:45;100253.16;;;12.75;99.76
53689;BME280;39583;54.682;30.662;2022-10-15T09:34:24;100261.28;;;12.68;98.80
53689;BME280;39583;54.682;30.662;2022-10-15T09:36:59;100257.16;;;12.65;98.65
53689;BME280;39583;54.682;30.662;2022-10-15T09:39:42;100254.44;;;12.65;97.41
53689;BME280;39583;54.682;30.662;2022-10-15T09:44:43;100258.53;;;12.81;97.51
53689;BME280;39583;54.682;30.662;2022-10-15T09:47:26;100246.03;;;12.87;96.58
53689;BME280;39583;54.682;30.662;2022-10-15T09:49:59;100243.50;;;12.92;96.10
53689;BME280;39583;54.682;30.662;2022-10-15T09:57:37;100254.31;;;12.92;95.10
53689;BME280;39583;54.682;30.662;2022-10-15T10:00:08;100256.75;;;13.07;94.62
53689;BME280;39583;54.682;30.662;2022-10-15T10:02:42;100255.81;;;13.26;93.84
53689;BME280;39583;54.682;30.662;2022-10-15T10:05:36;100262.16;;;13.45;93.34
53689;BME280;39583;54.682;30.662;2022-10-15T10:10:44;100270.72;;;13.67;90.46
53689;BME280;39583;54.682;30.662;2022-10-15T10:13:30;100263.44;;;13.67;89.65
53689;BME280;39583;54.682;30.662;2022-10-15T10:16:03;100275.97;;;13.62;88.55
53689;BME280;39583;54.682;30.662;2022-10-15T10:18:31;100270.72;;;13.67;88.05
53689;BME280;39583;54.682;30.662;2022-10-15T10:21:00;100270.09;;;13.65;86.24
53689;BME280;39583;54.682;30.662;2022-10-15T10:23:36;100275.81;;;13.56;86.15
53689;BME280;39583;54.682;30.662;2022-10-15T10:26:06;100267.00;;;13.61;86.61
53689;BME280;39583;54.682;30.662;2022-10-15T10:31:32;100266.75;;;13.69;85.45
53689;BME280;39583;54.682;30.662;2022-10-15T10:34:05;100273.59;;;13.72;84.53
53689;BME280;39583;54.682;30.662;2022-10-15T10:36:33;100269.16;;;13.77;84.16
53689;BME280;39583;54.682;30.662;2022-10-15T10:41:57;100266.81;;;13.87;84.71
53689;BME280;39583;54.682;30.662;2022-10-15T10:49:39;100267.69;;;13.56;83.26
53689;BME280;39583;54.682;30.662;2022-10-15T10:52:28;100274.84;;;13.44;84.00
53689;BME280;39583;54.682;30.662;2022-10-15T11:00:19;100258.63;;;13.44;82.76
53689;BME280;39583;54.682;30.662;2022-10-15T11:02:47;100265.94;;;13.37;84.76
53689;BME280;39583;54.682;30.662;2022-10-15T11:05:16;100259.91;;;13.35;83.84
53689;BME280;39583;54.682;30.662;2022-10-15T11:08:14;100261.00;;;13.27;83.35
53689;BME280;39583;54.682;30.662;2022-10-15T11:17:12;100251.41;;;13.32;83.23
53689;BME280;39583;54.682;30.662;2022-10-15T11:19:55;100264.03;;;13.44;83.55
53689;BME280;39583;54.682;30.662;2022-10-15T11:22:30;100264.28;;;13.36;83.08
53689;BME280;39583;54.682;30.662;2022-10-15T11:39:02;100247.91;;;13.24;83.93
53689;BME280;39583;54.682;30.662;2022-10-15T11:41:38;100254.75;;;13.27;84.14
53689;BME280;39583;54.682;30.662;2022-10-15T11:57:38;100239.41;;;13.77;83.08
53689;BME280;39583;54.682;30.662;2022-10-15T12:02:38;100240.19;;;13.60;82.45
53689;BME280;39583;54.682;30.662;2022-10-15T12:05:18;100239.34;;;13.27;81.70
53689;BME280;39583;54.682;30.662;2022-10-15T12:07:48;100240.25;;;13.21;82.76
53689;BME280;39583;54.682;30.662;2022-10-15T12:18:37;100232.78;;;13.73;82.95
53689;BME280;39583;54.682;30.662;2022-10-15T12:21:32;100230.63;;;13.82;82.50
53689;BME280;39583;54.682;30.662;2022-10-15T12:23:59;100226.78;;;13.90;82.18
53689;BME280;39583;54.682;30.662;2022-10-15T12:26:35;100228.06;;;13.87;81.63
53689;BME280;39583;54.682;30.662;2022-10-15T12:29:05;100231.88;;;13.79;80.99
53689;BME280;39583;54.682;30.662;2022-10-15T12:31:51;100221.25;;;13.60;81.13
53689;BME280;39583;54.682;30.662;2022-10-15T12:37:03;100219.81;;;13.25;81.46
53689;BME280;39583;54.682;30.662;2022-10-15T12:39:30;100218.34;;;13.30;81.14
53689;BME280;39583;54.682;30.662;2022-10-15T12:41:57;100216.75;;;13.22;81.00
53689;BME280;39583;54.682;30.662;2022-10-15T12:44:27;100216.13;;;13.13;80.83
53689;BME280;39583;54.682;30.662;2022-10-15T12:46:54;100214.09;;;13.09;81.30
53689;BME280;39583;54.682;30.662;2022-10-15T12:51:53;100208.53;;;12.97;81.50
53689;BME280;39583;54.682;30.662;2022-10-15T12:54:49;100209.59;;;12.96;81.05
53689;BME280;39583;54.682;30.662;2022-10-15T12:59:58;100210.25;;;12.91;81.21
53689;BME280;39583;54.682;30.662;2022-10-15T13:05:05;100202.53;;;12.95;81.15
53689;BME280;39583;54.682;30.662;2022-10-15T13:07:34;100204.25;;;12.89;81.41
53689;BME280;39583;54.682;30.662;2022-10-15T13:10:04;100204.25;;;12.83;81.18
53689;BME280;39583;54.682;30.662;2022-10-15T13:12:36;100204.50;;;12.75;81.69
53689;BME280;39583;54.682;30.662;2022-10-15T13:15:03;100205.00;;;12.65;81.88
53689;BME280;39583;54.682;30.662;2022-10-15T13:17:31;100193.03;;;12.41;82.38
53689;BME280;39583;54.682;30.662;2022-10-15T13:20:04;100209.03;;;12.43;82.52
53689;BME280;39583;54.682;30.662;2022-10-15T13:22:34;100215.25;;;12.43;82.85
53689;BME280;39583;54.682;30.662;2022-10-15T13:25:01;100217.31;;;12.48;83.01
53689;BME280;39583;54.682;30.662;2022-10-15T13:27:30;100212.72;;;12.55;83.04
53689;BME280;39583;54.682;30.662;2022-10-15T13:30:05;100216.84;;;12.57;83.35
53689;BME280;39583;54.682;30.662;2022-10-15T13:32:36;100198.22;;;12.43;82.95
53689;BME280;39583;54.682;30.662;2022-10-15T13:35:09;100204.84;;;12.47;83.38
53689;BME280;39583;54.682;30.662;2022-10-15T13:37:39;100209.63;;;12.45;83.54
53689;BME280;39583;54.682;30.662;2022-10-15T13:40:07;100202.41;;;12.38;83.68
53689;BME280;39583;54.682;30.662;2022-10-15T13:42:33;100203.00;;;12.40;84.11
53689;BME280;39583;54.682;30.662;2022-10-15T13:45:16;100203.03;;;12.34;84.40
53689;BME280;39583;54.682;30.662;2022-10-15T13:47:51;100202.44;;;12.25;83.88
53689;BME280;39583;54.682;30.662;2022-10-15T13:50:23;100192.69;;;12.24;84.43
53689;BME280;39583;54.682;30.662;2022-10-15T13:52:55;100200.97;;;12.23;84.37
53689;BME280;39583;54.682;30.662;2022-10-15T13:55:26;100196.63;;;12.22;84.81
53689;BME280;39583;54.682;30.662;2022-10-15T13:57:59;100201.19;;;12.21;84.57
53689;BME280;39583;54.682;30.662;2022-10-15T14:00:30;100176.53;;;12.04;84.61
53689;BME280;39583;54.682;30.662;2022-10-15T14:05:44;100204.75;;;12.08;84.53
53689;BME280;39583;54.682;30.662;2022-10-15T14:08:20;100207.06;;;12.05;84.94
53689;BME280;39583;54.682;30.662;2022-10-15T14:10:48;100198.56;;;12.01;84.69
53689;BME280;39583;54.682;30.662;2022-10-15T14:13:15;100204.56;;;11.97;84.96
53689;BME280;39583;54.682;30.662;2022-10-15T14:18:16;100198.38;;;11.90;85.11
53689;BME280;39583;54.682;30.662;2022-10-15T14:20:45;100209.81;;;11.85;84.84
53689;BME280;39583;54.682;30.662;2022-10-15T14:23:22;100209.59;;;11.80;85.57
53689;BME280;39583;54.682;30.662;2022-10-15T14:25:59;100210.19;;;11.75;85.44
53689;BME280;39583;54.682;30.662;2022-10-15T14:28:27;100208.09;;;11.71;85.43
53689;BME280;39583;54.682;30.662;2022-10-15T14:30:54;100213.09;;;11.67;85.10
53689;BME280;39583;54.682;30.662;2022-10-15T14:36:21;100221.19;;;11.54;85.76
53689;BME280;39583;54.682;30.662;2022-10-15T14:38:48;100204.81;;;11.42;85.72
53689;BME280;39583;54.682;30.662;2022-10-15T14:41:28;100214.53;;;11.43;85.87
53689;BME280;39583;54.682;30.662;2022-10-15T14:46:42;100213.28;;;11.33;85.98
53689;BME280;39583;54.682;30.662;2022-10-15T14:49:21;100219.13;;;11.23;86.02
53689;BME280;39583;54.682;30.662;2022-10-15T14:52:12;100224.91;;;11.13;85.74
53689;BME280;39583;54.682;30.662;2022-10-15T14:55:05;100225.06;;;11.05;86.05
53689;BME280;39583;54.682;30.662;2022-10-15T14:57:34;100225.69;;;10.94;86.19
53689;BME280;39583;54.682;30.662;2022-10-15T15:00:05;100231.88;;;10.88;86.41
53689;BME280;39583;54.682;30.662;2022-10-15T15:02:37;100231.88;;;10.81;86.40
53689;BME280;39583;54.682;30.662;2022-10-15T15:07:39;100207.72;;;10.53;86.61
53689;BME280;39583;54.682;30.662;2022-10-15T15:10:07;100229.53;;;10.65;86.56
53689;BME280;39583;54.682;30.662;2022-10-15T15:12:34;100228.47;;;10.59;86.75
53689;BME280;39583;54.682;30.662;2022-10-15T15:15:12;100239.88;;;10.55;86.78
53689;BME280;39583;54.682;30.662;2022-10-15T15:17:39;100238.00;;;10.55;86.97
53689;BME280;39583;54.682;30.662;2022-10-15T15:20:05;100237.78;;;10.57;86.91
53689;BME280;39583;54.682;30.662;2022-10-15T15:22:34;100242.16;;;10.58;86.52
53689;BME280;39583;54.682;30.662;2022-10-15T15:25:05;100248.56;;;10.57;86.48
53689;BME280;39583;54.682;30.662;2022-10-15T15:27:32;100256.03;;;10.55;86.27
53689;BME280;39583;54.682;30.662;2022-10-15T15:30:06;100250.81;;;10.53;86.65
53689;BME280;39583;54.682;30.662;2022-10-15T15:32:32;100251.84;;;10.52;86.53
53689;BME280;39583;54.682;30.662;2022-10-15T15:34:59;100255.97;;;10.48;86.46
53689;BME280;39583;54.682;30.662;2022-10-15T15:37:25;100255.75;;;10.43;86.66
53689;BME280;39583;54.682;30.662;2022-10-15T15:39:54;100263.16;;;10.41;86.60
53689;BME280;39583;54.682;30.662;2022-10-15T15:42:22;100260.69;;;10.40;86.78
53689;BME280;39583;54.682;30.662;2022-10-15T15:44:49;100265.44;;;10.38;86.87
53689;BME280;39583;54.682;30.662;2022-10-15T15:47:16;100244.03;;;10.23;86.97
53689;BME280;39583;54.682;30.662;2022-10-15T15:49:42;100255.91;;;10.35;87.08
53689;BME280;39583;54.682;30.662;2022-10-15T15:52:11;100265.00;;;10.34;86.77
53689;BME280;39583;54.682;30.662;2022-10-15T15:54:44;100261.69;;;10.32;86.83
53689;BME280;39583;54.682;30.662;2022-10-15T15:57:11;100269.56;;;10.33;86.89
53689;BME280;39583;54.682;30.662;2022-10-15T15:59:38;100262.94;;;10.29;86.85
53689;BME280;39583;54.682;30.662;2022-10-15T16:02:05;100266.03;;;10.33;86.98
53689;BME280;39583;54.682;30.662;2022-10-15T16:04:31;100268.09;;;10.31;87.15
53689;BME280;39583;54.682;30.662;2022-10-15T16:06:57;100273.69;;;10.29;86.88
53689;BME280;39583;54.682;30.662;2022-10-15T16:09:25;100268.47;;;10.28;86.96
53689;BME280;39583;54.682;30.662;2022-10-15T16:11:52;100274.91;;;10.27;86.79
53689;BME280;39583;54.682;30.662;2022-10-15T16:14:18;100273.44;;;10.24;86.85
53689;BME280;39583;54.682;30.662;2022-10-15T16:16:45;100271.56;;;10.25;86.75
53689;BME280;39583;54.682;30.662;2022-10-15T16:19:12;100273.25;;;10.26;86.96
53689;BME280;39583;54.682;30.662;2022-10-15T16:21:39;100269.09;;;10.23;86.51
53689;BME280;39583;54.682;30.662;2022-10-15T16:24:06;100269.72;;;10.25;86.85
53689;BME280;39583;54.682;30.662;2022-10-15T16:26:33;100268.06;;;10.24;86.76
53689;BME280;39583;54.682;30.662;2022-10-15T16:28:59;100266.59;;;10.22;86.65
53689;BME280;39583;54.682;30.662;2022-10-15T16:31:26;100262.41;;;10.19;86.50
53689;BME280;39583;54.682;30.662;2022-10-15T16:33:58;100267.38;;;10.16;86.76
53689;BME280;39583;54.682;30.662;2022-10-15T16:36:24;100272.75;;;10.16;86.18
53689;BME280;39583;54.682;30.662;2022-10-15T16:38:51;100269.41;;;10.14;86.10
53689;BME280;39583;54.682;30.662;2022-10-15T16:41:18;100277.47;;;10.14;86.42
53689;BME280;39583;54.682;30.662;2022-10-15T16:43:45;100275.63;;;10.14;86.26
53689;BME280;39583;54.682;30.662;2022-10-15T16:46:13;100270.22;;;10.14;86.36
53689;BME280;39583;54.682;30.662;2022-10-15T16:48:39;100271.88;;;10.15;86.37
53689;BME280;39583;54.682;30.662;2022-10-15T16:51:11;100264.41;;;10.11;86.05
53689;BME280;39583;54.682;30.662;2022-10-15T16:53:39;100261.13;;;10.15;86.34
53689;BME280;39583;54.682;30.662;2022-10-15T16:56:15;100271.72;;;10.17;86.44
53689;BME280;39583;54.682;30.662;2022-10-15T16:58:42;100283.31;;;10.17;86.18
53689;BME280;39583;54.682;30.662;2022-10-15T17:01:13;100283.50;;;10.16;86.01
53689;BME280;39583;54.682;30.662;2022-10-15T17:03:41;100288.44;;;10.12;86.02
53689;BME280;39583;54.682;30.662;2022-10-15T17:06:15;100282.63;;;10.09;86.35
53689;BME280;39583;54.682;30.662;2022-10-15T17:08:49;100279.03;;;10.01;86.18
53689;BME280;39583;54.682;30.662;2022-10-15T17:11:27;100282.72;;;9.94;86.18
53689;BME280;39583;54.682;30.662;2022-10-15T17:13:56;100285.22;;;9.95;86.24
53689;BME280;39583;54.682;30.662;2022-10-15T17:16:31;100280.03;;;9.94;86.41
53689;BME280;39583;54.682;30.662;2022-10-15T17:18:59;100286.25;;;9.94;86.25
53689;BME280;39583;54.682;30.662;2022-10-15T17:21:27;100287.09;;;9.95;86.48
53689;BME280;39583;54.682;30.662;2022-10-15T17:23:56;100291.63;;;9.94;86.46
53689;BME280;39583;54.682;30.662;2022-10-15T17:26:25;100290.81;;;9.94;86.52
53689;BME280;39583;54.682;30.662;2022-10-15T17:28:53;100291.00;;;9.92;86.42
53689;BME280;39583;54.682;30.662;2022-10-15T17:31:22;100296.75;;;9.89;86.30
53689;BME280;39583;54.682;30.662;2022-10-15T17:33:56;100292.41;;;9.88;86.59
53689;BME280;39583;54.682;30.662;2022-10-15T17:36:25;100299.63;;;9.88;86.49
53689;BME280;39583;54.682;30.662;2022-10-15T17:38:53;100303.75;;;9.84;86.62
53689;BME280;39583;54.682;30.662;2022-10-15T17:41:23;100301.47;;;9.81;86.47
53689;BME280;39583;54.682;30.662;2022-10-15T17:43:51;100305.38;;;9.78;86.76
53689;BME280;39583;54.682;30.662;2022-10-15T17:46:23;100301.78;;;9.71;86.68
53689;BME280;39583;54.682;30.662;2022-10-15T17:48:51;100303.41;;;9.65;86.92
53689;BME280;39583;54.682;30.662;2022-10-15T17:51:20;100301.84;;;9.56;86.78
53689;BME280;39583;54.682;30.662;2022-10-15T17:53:52;100308.38;;;9.47;86.91
53689;BME280;39583;54.682;30.662;2022-10-15T17:56:24;100304.81;;;9.40;87.08
53689;BME280;39583;54.682;30.662;2022-10-15T17:58:56;100298.28;;;9.28;87.42
53689;BME280;39583;54.682;30.662;2022-10-15T18:01:30;100306.16;;;9.29;87.40
53689;BME280;39583;54.682;30.662;2022-10-15T18:03:57;100314.22;;;9.29;87.50
53689;BME280;39583;54.682;30.662;2022-10-15T18:06:25;100309.66;;;9.30;87.37
53689;BME280;39583;54.682;30.662;2022-10-15T18:08:53;100305.56;;;9.34;87.23
53689;BME280;39583;54.682;30.662;2022-10-15T18:11:23;100308.53;;;9.39;87.22
53689;BME280;39583;54.682;30.662;2022-10-15T18:13:50;100310.00;;;9.41;87.31
53689;BME280;39583;54.682;30.662;2022-10-15T18:16:18;100317.47;;;9.46;87.08
53689;BME280;39583;54.682;30.662;2022-10-15T18:18:45;100310.22;;;9.46;87.06
53689;BME280;39583;54.682;30.662;2022-10-15T18:21:17;100314.78;;;9.46;86.85
53689;BME280;39583;54.682;30.662;2022-10-15T18:23:44;100303.31;;;9.37;86.78
53689;BME280;39583;54.682;30.662;2022-10-15T18:26:17;100311.75;;;9.34;86.58
53689;BME280;39583;54.682;30.662;2022-10-15T18:28:46;100315.78;;;9.24;86.51
53689;BME280;39583;54.682;30.662;2022-10-15T18:31:14;100294.19;;;8.96;86.78
53689;BME280;39583;54.682;30.662;2022-10-15T18:33:47;100311.72;;;8.92;86.89
53689;BME280;39583;54.682;30.662;2022-10-15T18:36:19;100316.28;;;8.76;87.07
